Jayton, Texas
Current Conditions -  °F | °C
As of 1:35 AM on Thursday 23 Oct 2014 (Local Time) from KSNK Reporting Station
Overcast Overcast  
Wind Chill: 58°   Ceiling: 3400
Heat Index: 58°   Visibility: 10mi
Dew Point: 55°   Wind: 0mph
Humidity: 91%   Direction: NA
Pressure: 30.14"   Gusts: NA
Location:  33.25°N, 100.57°W
Report Text: KSNK 230635Z AUTO 00000KT 10SM OVC034 15/13 A3014 RMK AO2 T01450130
Loading
Personal Weather Stations






























Interactive Weather Map New forecast layout! Learn more

10-Day Weather Forecast

Advertisements
Track Severe Weather on mobile